createdAt,value
2022-11-14T00:02:05.299Z,5.82
2022-11-14T00:05:26.065Z,5.82
2022-11-14T00:08:46.981Z,5.88
2022-11-14T00:12:07.904Z,5.90
2022-11-14T00:15:28.844Z,5.83
2022-11-14T00:18:49.801Z,5.87
2022-11-14T00:22:10.535Z,5.96
2022-11-14T00:25:32.049Z,5.93
2022-11-14T00:28:54.363Z,5.98
2022-11-14T00:32:14.822Z,5.97
2022-11-14T00:35:35.564Z,5.82
2022-11-14T00:38:56.422Z,5.81
2022-11-14T00:42:17.277Z,5.98
2022-11-14T00:45:38.246Z,5.95
2022-11-14T00:48:59.042Z,5.87
2022-11-14T00:52:19.660Z,5.68
2022-11-14T00:55:41.696Z,5.89
2022-11-14T00:59:02.130Z,5.85
2022-11-14T01:02:23.467Z,5.76
2022-11-14T01:05:50.224Z,5.89
2022-11-14T01:09:11.190Z,5.86
2022-11-14T01:12:31.982Z,5.80
2022-11-14T01:15:54.933Z,5.78
2022-11-14T01:19:15.877Z,5.79
2022-11-14T01:22:36.647Z,5.79
2022-11-14T01:26:05.312Z,5.64
2022-11-14T01:29:25.911Z,5.59
2022-11-14T01:32:46.775Z,5.57
2022-11-14T01:36:09.069Z,5.56
2022-11-14T01:39:29.879Z,5.50
2022-11-14T01:43:23.807Z,5.54
2022-11-14T01:46:48.373Z,5.30
2022-11-14T01:50:10.555Z,5.34
2022-11-14T01:53:31.854Z,5.33
2022-11-14T01:56:56.443Z,5.18
2022-11-14T02:00:16.989Z,5.28
2022-11-14T02:03:40.274Z,5.08
2022-11-14T02:07:03.540Z,4.98
2022-11-14T02:10:24.366Z,5.10
2022-11-14T02:13:45.625Z,5.19
2022-11-14T02:20:47.178Z,5.08
2022-11-14T02:24:10.616Z,4.98
2022-11-14T02:27:33.289Z,4.90
2022-11-14T02:30:54.398Z,5.08
2022-11-14T02:34:16.899Z,5.12
2022-11-14T02:37:39.031Z,5.08
2022-11-14T02:41:01.204Z,4.98
2022-11-14T02:44:22.138Z,4.93
2022-11-14T02:47:42.920Z,4.82
2022-11-14T02:51:03.850Z,4.96
2022-11-14T02:54:24.670Z,4.91
2022-11-14T02:57:45.598Z,4.69
2022-11-14T03:01:20.345Z,4.82
2022-11-14T03:04:42.243Z,4.72
2022-11-14T03:08:03.319Z,4.79
2022-11-14T03:11:23.979Z,4.86
2022-11-14T03:14:45.199Z,4.70
2022-11-14T03:18:05.758Z,4.77
2022-11-14T03:21:26.886Z,4.67
2022-11-14T03:24:47.703Z,4.80
2022-11-14T03:28:08.617Z,4.70
2022-11-14T03:31:29.529Z,4.53
2022-11-14T03:34:50.219Z,4.58
2022-11-14T03:38:11.046Z,4.63
2022-11-14T03:41:32.594Z,4.59
2022-11-14T03:44:53.634Z,4.57
2022-11-14T03:48:14.963Z,4.51
2022-11-14T03:51:35.876Z,4.62
2022-11-14T03:54:56.874Z,4.45
2022-11-14T03:58:17.897Z,4.51
2022-11-14T04:01:38.551Z,4.45
2022-11-14T04:04:59.362Z,4.43
2022-11-14T04:08:20.217Z,4.34
2022-11-14T04:11:41.030Z,4.42
2022-11-14T04:15:02.025Z,4.51
2022-11-14T04:18:23.316Z,4.50
2022-11-14T04:21:44.152Z,4.46
2022-11-14T04:25:05.662Z,4.41
2022-11-14T04:28:26.453Z,4.40
2022-11-14T04:31:47.250Z,4.46
2022-11-14T04:35:08.654Z,4.44
2022-11-14T04:38:30.243Z,4.48
2022-11-14T04:41:51.111Z,4.50
2022-11-14T04:45:11.996Z,4.38
2022-11-14T04:48:32.904Z,4.35
2022-11-14T04:51:53.429Z,4.39
2022-11-14T04:55:14.208Z,4.41
2022-11-14T04:58:35.154Z,4.44
2022-11-14T05:01:56.048Z,4.47
2022-11-14T05:05:17.111Z,4.46
2022-11-14T05:08:38.205Z,4.52
2022-11-14T05:11:58.843Z,4.42
2022-11-14T05:15:19.777Z,4.44
2022-11-14T05:18:45.816Z,4.41
2022-11-14T05:22:07.462Z,4.45
2022-11-14T05:25:28.218Z,4.37
2022-11-14T05:28:49.073Z,4.47
2022-11-14T05:32:15.056Z,4.38
2022-11-14T05:35:36.717Z,4.25
2022-11-14T05:38:57.562Z,4.39
2022-11-14T05:42:18.345Z,4.32
2022-11-14T05:45:39.371Z,4.49
2022-11-14T05:49:00.397Z,4.47
2022-11-14T05:52:21.437Z,4.35
2022-11-14T05:55:42.232Z,4.27
2022-11-14T05:59:03.160Z,4.25
2022-11-14T06:02:23.975Z,4.34
2022-11-14T06:05:44.828Z,4.27
2022-11-14T06:09:05.655Z,4.48
2022-11-14T06:12:26.537Z,4.49
2022-11-14T06:15:47.346Z,4.39
2022-11-14T06:19:08.383Z,4.52
2022-11-14T06:22:28.983Z,4.54
2022-11-14T06:25:49.874Z,4.54
2022-11-14T06:29:10.823Z,4.35
2022-11-14T06:32:31.596Z,4.42
2022-11-14T06:35:58.893Z,4.52
2022-11-14T06:39:19.891Z,4.63
2022-11-14T06:42:40.686Z,4.66
2022-11-14T06:46:02.848Z,4.57
2022-11-14T06:49:25.007Z,4.58
2022-11-14T06:52:45.819Z,4.43
2022-11-14T06:56:09.582Z,4.60
2022-11-14T06:59:30.143Z,4.61
2022-11-14T07:02:51.019Z,4.60
2022-11-14T07:06:17.983Z,4.67
2022-11-14T07:09:38.724Z,4.73
2022-11-14T07:12:59.290Z,4.78
2022-11-14T07:16:21.041Z,4.94
2022-11-14T07:19:41.687Z,4.90
2022-11-14T07:23:02.611Z,4.92
2022-11-14T07:26:24.264Z,5.03
2022-11-14T07:29:45.118Z,5.07
2022-11-14T07:33:05.839Z,5.11
2022-11-14T07:36:26.895Z,5.19
2022-11-14T07:39:47.981Z,5.25
2022-11-14T07:43:08.666Z,5.23
2022-11-14T07:46:29.662Z,5.44
2022-11-14T07:49:50.719Z,5.69
2022-11-14T07:53:11.431Z,5.99
2022-11-14T07:56:32.290Z,6.18
2022-11-14T07:59:53.074Z,6.42
2022-11-14T08:03:14.037Z,6.56
2022-11-14T08:06:35.248Z,6.64
2022-11-14T08:09:55.743Z,6.85
2022-11-14T08:13:33.424Z,6.98
2022-11-14T08:16:54.637Z,7.13
2022-11-14T08:20:16.003Z,7.24
2022-11-14T08:23:36.758Z,7.40
2022-11-14T08:26:57.509Z,7.85
2022-11-14T08:30:18.513Z,7.87
2022-11-14T08:33:40.003Z,7.86
2022-11-14T08:37:01.657Z,7.82
2022-11-14T08:40:22.738Z,7.75
2022-11-14T08:43:43.698Z,7.91
2022-11-14T08:47:05.084Z,7.95
2022-11-14T08:50:25.901Z,8.03
2022-11-14T08:53:46.390Z,8.14
2022-11-14T08:57:11.979Z,8.25
2022-11-14T09:00:32.846Z,8.35
2022-11-14T09:03:59.401Z,8.36
2022-11-14T09:07:20.713Z,8.47
2022-11-14T09:10:41.633Z,8.62
2022-11-14T09:14:04.118Z,8.88
2022-11-14T09:17:25.054Z,9.07
2022-11-14T09:20:45.918Z,9.17
2022-11-14T09:24:07.151Z,9.27
2022-11-14T09:27:28.370Z,9.27
2022-11-14T09:30:50.505Z,9.36
2022-11-14T09:34:11.417Z,9.44
2022-11-14T09:37:32.354Z,9.41
2022-11-14T09:41:09.372Z,9.24
2022-11-14T09:44:46.702Z,9.38
2022-11-14T09:48:13.604Z,9.47
2022-11-14T09:51:45.313Z,9.49
2022-11-14T09:55:13.341Z,9.66
2022-11-14T09:58:34.206Z,9.68
2022-11-14T10:02:30.342Z,9.82
2022-11-14T10:06:12.693Z,9.85
2022-11-14T10:09:36.166Z,9.98
2022-11-14T10:13:26.401Z,10.21
2022-11-14T10:17:34.929Z,10.32
2022-11-14T10:21:01.002Z,10.17
2022-11-14T10:24:37.091Z,10.30
2022-11-14T10:28:13.231Z,10.30
2022-11-14T10:32:18.814Z,10.31
2022-11-14T10:35:45.599Z,10.60
2022-11-14T10:39:31.541Z,10.53
2022-11-14T10:43:06.977Z,10.70
2022-11-14T10:46:37.838Z,10.61
2022-11-14T10:50:04.854Z,10.73
2022-11-14T10:53:35.937Z,10.89
2022-11-14T10:56:56.692Z,10.86
2022-11-14T11:00:20.665Z,11.03
2022-11-14T11:03:44.136Z,10.89
2022-11-14T11:07:07.813Z,11.06
2022-11-14T11:10:47.582Z,11.20
2022-11-14T11:14:18.199Z,11.13
2022-11-14T11:17:57.114Z,11.09
2022-11-14T11:21:21.104Z,11.30
2022-11-14T11:24:41.868Z,11.40
2022-11-14T11:28:20.826Z,11.46
2022-11-14T11:31:58.698Z,11.54
2022-11-14T11:35:19.814Z,11.68
2022-11-14T11:38:41.266Z,11.76
2022-11-14T11:42:10.180Z,11.80
2022-11-14T11:45:33.303Z,11.70
2022-11-14T11:49:02.096Z,11.82
2022-11-14T11:52:43.078Z,11.90
2022-11-14T11:56:14.046Z,11.91
2022-11-14T11:59:41.918Z,11.96
2022-11-14T12:03:03.069Z,11.97
2022-11-14T12:06:27.381Z,12.06
2022-11-14T12:10:09.740Z,12.02
2022-11-14T12:13:43.523Z,12.09
2022-11-14T12:17:13.425Z,12.21
2022-11-14T12:20:55.820Z,12.33
2022-11-14T12:24:41.772Z,12.25
2022-11-14T12:28:36.795Z,12.45
2022-11-14T12:32:04.092Z,12.49
2022-11-14T12:35:37.683Z,12.67
2022-11-14T12:39:02.661Z,12.67
2022-11-14T12:42:23.752Z,12.74
2022-11-14T12:45:45.514Z,12.82
2022-11-14T12:49:40.220Z,12.85
2022-11-14T12:53:04.048Z,12.80
2022-11-14T12:56:31.617Z,12.80
2022-11-14T13:00:02.598Z,12.77
2022-11-14T13:03:40.945Z,12.89
2022-11-14T13:07:14.093Z,12.90
2022-11-14T13:10:40.106Z,12.82
2022-11-14T13:14:21.318Z,12.91
2022-11-14T13:18:03.438Z,12.91
2022-11-14T13:21:47.923Z,13.00
2022-11-14T13:25:11.505Z,13.00
2022-11-14T13:28:38.303Z,13.05
2022-11-14T13:31:59.384Z,13.06
2022-11-14T13:36:04.847Z,12.96
2022-11-14T13:39:38.418Z,13.08
2022-11-14T13:43:37.952Z,13.09
2022-11-14T13:47:37.656Z,13.04
2022-11-14T13:51:28.600Z,13.02
2022-11-14T13:54:50.919Z,12.98
2022-11-14T13:58:29.464Z,12.98
2022-11-14T14:02:03.605Z,12.81
2022-11-14T14:06:05.447Z,12.90
2022-11-14T14:09:38.673Z,12.80
2022-11-14T14:13:11.439Z,12.75
2022-11-14T14:16:47.568Z,12.68
2022-11-14T14:20:34.546Z,12.50
2022-11-14T14:24:30.050Z,12.50
2022-11-14T14:28:31.981Z,12.41
2022-11-14T14:31:54.180Z,12.33
2022-11-14T14:35:26.482Z,12.30
2022-11-14T14:38:50.229Z,12.15
2022-11-14T14:42:12.300Z,12.18
2022-11-14T14:45:46.407Z,12.02
2022-11-14T14:49:07.442Z,11.94
2022-11-14T14:52:31.025Z,11.86
2022-11-14T14:55:55.605Z,11.90
2022-11-14T14:59:23.764Z,11.85
2022-11-14T15:02:45.072Z,11.75
2022-11-14T15:06:30.566Z,11.74
2022-11-14T15:10:02.447Z,11.66
2022-11-14T15:13:24.814Z,11.45
2022-11-14T15:16:49.956Z,11.51
2022-11-14T15:20:26.650Z,11.41
2022-11-14T15:24:03.080Z,11.34
2022-11-14T15:27:24.119Z,11.26
2022-11-14T15:31:01.432Z,11.20
2022-11-14T15:34:25.108Z,11.12
2022-11-14T15:38:37.327Z,11.03
2022-11-14T15:42:28.098Z,10.95
2022-11-14T15:45:48.927Z,10.84
2022-11-14T15:49:25.273Z,10.76
2022-11-14T15:52:55.750Z,10.57
2022-11-14T15:56:16.394Z,10.55
2022-11-14T15:59:37.386Z,10.50
2022-11-14T16:02:58.317Z,10.56
2022-11-14T16:06:19.248Z,10.46
2022-11-14T16:09:40.581Z,10.46
2022-11-14T16:13:01.555Z,10.31
2022-11-14T16:16:22.723Z,10.25
2022-11-14T16:19:44.166Z,10.32
2022-11-14T16:23:05.968Z,10.24
2022-11-14T16:26:26.424Z,10.18
2022-11-14T16:29:47.243Z,10.06
2022-11-14T16:33:09.321Z,10.13
2022-11-14T16:36:29.995Z,10.02
2022-11-14T16:39:50.587Z,10.05
2022-11-14T16:43:14.063Z,9.96
2022-11-14T16:46:34.693Z,9.91
2022-11-14T16:49:55.576Z,9.85
2022-11-14T16:53:16.412Z,9.76
2022-11-14T16:56:38.551Z,9.69
2022-11-14T16:59:59.777Z,9.78
2022-11-14T17:03:20.959Z,9.66
2022-11-14T17:06:41.472Z,9.75
2022-11-14T17:10:02.503Z,9.63
2022-11-14T17:13:25.513Z,9.74
2022-11-14T17:16:46.887Z,9.60
2022-11-14T17:20:08.608Z,9.67
2022-11-14T17:23:29.483Z,9.62
2022-11-14T17:26:50.599Z,9.44
2022-11-14T17:30:12.500Z,9.43
2022-11-14T17:33:33.486Z,9.36
2022-11-14T17:36:55.264Z,9.45
2022-11-14T17:40:16.094Z,9.36
2022-11-14T17:43:39.538Z,9.31
2022-11-14T17:47:00.999Z,9.26
2022-11-14T17:50:21.991Z,9.16
2022-11-14T17:53:43.416Z,9.25
2022-11-14T17:57:05.423Z,9.26
2022-11-14T18:00:26.246Z,9.14
2022-11-14T18:03:47.242Z,9.15
2022-11-14T18:07:07.994Z,9.14
2022-11-14T18:10:28.860Z,9.07
2022-11-14T18:13:54.651Z,9.07
2022-11-14T18:17:15.694Z,8.98
2022-11-14T18:20:37.911Z,8.95
2022-11-14T18:24:00.033Z,8.88
2022-11-14T18:27:22.122Z,8.91
2022-11-14T18:30:43.495Z,8.74
2022-11-14T18:34:05.348Z,8.62
2022-11-14T18:37:26.389Z,8.70
2022-11-14T18:40:47.169Z,8.66
2022-11-14T18:44:09.960Z,8.73
2022-11-14T18:47:30.828Z,8.65
2022-11-14T18:50:51.604Z,8.60
2022-11-14T18:54:16.280Z,8.53
2022-11-14T18:57:36.956Z,8.53
2022-11-14T19:00:57.933Z,8.56
2022-11-14T19:04:19.751Z,8.39
2022-11-14T19:07:40.629Z,8.49
2022-11-14T19:11:03.326Z,8.41
2022-11-14T19:14:24.454Z,8.46
2022-11-14T19:17:48.456Z,8.46
2022-11-14T19:21:09.541Z,8.40
2022-11-14T19:24:30.063Z,8.46
2022-11-14T19:27:51.475Z,8.40
2022-11-14T19:31:12.121Z,8.48
2022-11-14T19:34:33.891Z,8.37
2022-11-14T19:37:54.557Z,8.34
2022-11-14T19:41:20.287Z,8.43
2022-11-14T19:44:40.926Z,8.41
2022-11-14T19:48:02.168Z,8.25
2022-11-14T19:51:23.201Z,8.30
2022-11-14T19:54:43.707Z,8.25
2022-11-14T19:58:04.547Z,8.10
2022-11-14T20:01:28.101Z,7.97
2022-11-14T20:04:49.658Z,7.89
2022-11-14T20:08:10.348Z,7.73
2022-11-14T20:11:31.372Z,7.70
2022-11-14T20:14:52.442Z,7.59
2022-11-14T20:18:13.329Z,7.67
2022-11-14T20:21:34.869Z,7.35
2022-11-14T20:24:55.322Z,7.41
2022-11-14T20:28:16.039Z,7.19
2022-11-14T20:31:36.752Z,7.11
2022-11-14T20:34:57.730Z,7.04
2022-11-14T20:38:18.495Z,6.92
2022-11-14T20:41:39.467Z,6.87
2022-11-14T20:45:00.353Z,6.69
2022-11-14T20:48:21.112Z,6.66
2022-11-14T20:51:42.069Z,6.38
2022-11-14T20:55:07.415Z,6.38
2022-11-14T20:58:32.087Z,6.28
2022-11-14T21:01:52.554Z,6.31
2022-11-14T21:05:13.310Z,6.01
2022-11-14T21:08:35.917Z,6.07
2022-11-14T21:11:56.572Z,6.11
2022-11-14T21:15:17.465Z,6.11
2022-11-14T21:18:40.738Z,6.09
2022-11-14T21:22:03.825Z,6.10
2022-11-14T21:25:25.221Z,6.10
2022-11-14T21:28:49.189Z,6.20
2022-11-14T21:32:09.677Z,6.07
2022-11-14T21:35:32.317Z,6.18
2022-11-14T21:38:53.803Z,6.20
2022-11-14T21:42:18.388Z,6.27
2022-11-14T21:45:39.217Z,6.34
2022-11-14T21:49:00.006Z,6.29
2022-11-14T21:52:20.926Z,6.34
2022-11-14T21:55:44.012Z,6.23
2022-11-14T21:59:13.351Z,6.21
2022-11-14T22:02:53.049Z,6.07
2022-11-14T22:06:13.797Z,6.12
2022-11-14T22:09:35.032Z,6.03
2022-11-14T22:12:55.863Z,6.00
2022-11-14T22:16:19.790Z,5.98
2022-11-14T22:19:40.807Z,6.04
2022-11-14T22:23:01.936Z,6.04
2022-11-14T22:26:23.456Z,5.97
2022-11-14T22:29:44.285Z,5.98
2022-11-14T22:33:05.152Z,5.96
2022-11-14T22:36:27.377Z,5.99
2022-11-14T22:39:48.218Z,6.06
2022-11-14T22:43:09.069Z,6.00
2022-11-14T22:46:30.100Z,6.08
2022-11-14T22:49:50.813Z,6.14
2022-11-14T22:53:11.737Z,6.04
2022-11-14T22:56:32.754Z,5.95
2022-11-14T22:59:53.473Z,6.04
2022-11-14T23:03:20.524Z,5.94
2022-11-14T23:06:41.633Z,6.12
2022-11-14T23:10:04.806Z,5.93
2022-11-14T23:13:25.423Z,5.87
2022-11-14T23:16:46.156Z,5.94
2022-11-14T23:20:11.146Z,5.93
2022-11-14T23:23:36.000Z,5.86
2022-11-14T23:26:56.646Z,5.78
2022-11-14T23:30:17.722Z,5.99
2022-11-14T23:33:38.769Z,6.01
2022-11-14T23:36:59.781Z,6.00
2022-11-14T23:40:20.761Z,6.04
2022-11-14T23:43:41.649Z,6.03
2022-11-14T23:47:02.583Z,6.08
2022-11-14T23:50:23.442Z,6.01
2022-11-14T23:53:43.956Z,5.83
2022-11-14T23:57:04.918Z,5.88
